createdAt,value
2023-01-27T00:00:53.764Z,16.87
2023-01-27T00:01:55.559Z,16.88
2023-01-27T00:02:57.405Z,16.80
2023-01-27T00:03:59.330Z,16.87
2023-01-27T00:05:01.254Z,16.86
2023-01-27T00:06:06.640Z,16.82
2023-01-27T00:07:08.557Z,16.86
2023-01-27T00:08:10.480Z,16.80
2023-01-27T00:09:12.321Z,16.85
2023-01-27T00:10:17.001Z,16.84
2023-01-27T00:11:37.564Z,16.85
2023-01-27T00:12:57.811Z,16.82
2023-01-27T00:13:59.726Z,16.83
2023-01-27T00:15:01.581Z,16.88
2023-01-27T00:16:03.653Z,16.81
2023-01-27T00:17:05.422Z,16.78
2023-01-27T00:18:08.191Z,16.79
2023-01-27T00:19:10.047Z,16.82
2023-01-27T00:20:12.549Z,16.70
2023-01-27T00:21:33.047Z,16.80
2023-01-27T00:22:53.339Z,16.78
2023-01-27T00:24:13.690Z,16.86
2023-01-27T00:25:15.527Z,16.87
2023-01-27T00:26:19.501Z,16.83
2023-01-27T00:27:21.369Z,16.81
2023-01-27T00:28:23.225Z,16.79
2023-01-27T00:29:26.851Z,16.78
2023-01-27T00:30:28.668Z,16.77
2023-01-27T00:31:48.928Z,16.76
2023-01-27T00:33:09.707Z,16.78
2023-01-27T00:34:11.705Z,16.82
2023-01-27T00:35:16.482Z,16.80
2023-01-27T00:36:18.383Z,16.78
2023-01-27T00:37:20.891Z,16.75
2023-01-27T00:38:22.730Z,16.75
2023-01-27T00:39:24.722Z,16.73
2023-01-27T00:40:26.516Z,16.73
2023-01-27T00:41:28.980Z,16.66
2023-01-27T00:42:30.876Z,16.72
2023-01-27T00:43:33.070Z,16.64
2023-01-27T00:44:34.940Z,16.71
2023-01-27T00:45:48.949Z,16.71
2023-01-27T00:46:50.920Z,16.73
2023-01-27T00:47:53.246Z,16.72
2023-01-27T00:48:55.120Z,16.65
2023-01-27T00:49:57.086Z,16.70
2023-01-27T00:50:59.368Z,16.69
2023-01-27T00:52:01.250Z,16.69
2023-01-27T00:53:03.111Z,16.69
2023-01-27T00:54:05.271Z,16.68
2023-01-27T00:55:08.098Z,16.67
2023-01-27T00:56:10.606Z,16.67
2023-01-27T00:57:12.673Z,16.60
2023-01-27T00:58:14.715Z,16.68
2023-01-27T00:59:16.563Z,16.59
2023-01-27T01:00:20.409Z,16.67
2023-01-27T01:01:22.311Z,16.68
2023-01-27T01:02:24.162Z,16.67
2023-01-27T01:03:31.177Z,16.66
2023-01-27T01:04:33.119Z,16.68
2023-01-27T01:05:35.111Z,16.66
2023-01-27T01:06:37.339Z,16.60
2023-01-27T01:07:39.147Z,16.64
2023-01-27T01:08:43.557Z,16.65
2023-01-27T01:09:45.436Z,16.65
2023-01-27T01:10:47.264Z,16.56
2023-01-27T01:11:49.086Z,16.64
2023-01-27T01:12:50.888Z,16.59
2023-01-27T01:13:56.065Z,16.64
2023-01-27T01:14:58.289Z,16.63
2023-01-27T01:16:15.643Z,16.64
2023-01-27T01:17:17.511Z,16.59
2023-01-27T01:18:19.619Z,16.62
2023-01-27T01:19:21.436Z,16.57
2023-01-27T01:20:24.497Z,16.62
2023-01-27T01:21:26.431Z,16.62
2023-01-27T01:22:28.300Z,16.60
2023-01-27T01:23:30.178Z,16.59
2023-01-27T01:24:32.087Z,16.59
2023-01-27T01:25:34.814Z,16.59
2023-01-27T01:26:37.370Z,16.58
2023-01-27T01:27:40.775Z,16.59
2023-01-27T01:28:46.924Z,16.54
2023-01-27T01:29:48.804Z,16.59
2023-01-27T01:30:50.757Z,16.58
2023-01-27T01:31:52.668Z,16.56
2023-01-27T01:32:55.069Z,16.56
2023-01-27T01:33:56.935Z,16.57
2023-01-27T01:34:58.783Z,16.56
2023-01-27T01:36:05.808Z,16.55
2023-01-27T01:37:07.642Z,16.56
2023-01-27T01:38:10.136Z,16.56
2023-01-27T01:39:11.933Z,16.54
2023-01-27T01:40:14.833Z,16.54
2023-01-27T01:41:20.570Z,16.51
2023-01-27T01:42:22.527Z,16.54
2023-01-27T01:43:26.447Z,16.48
2023-01-27T01:44:30.951Z,16.52
2023-01-27T01:45:36.465Z,16.52
2023-01-27T01:46:38.479Z,16.52
2023-01-27T01:47:40.435Z,16.53
2023-01-27T01:48:53.654Z,16.51
2023-01-27T01:49:55.590Z,16.54
2023-01-27T01:51:01.863Z,16.51
2023-01-27T01:52:10.038Z,16.52
2023-01-27T01:53:12.245Z,16.52
2023-01-27T01:54:21.636Z,16.51
2023-01-27T01:55:24.422Z,16.53
2023-01-27T01:56:32.448Z,16.38
2023-01-27T01:57:37.697Z,16.47
2023-01-27T01:59:53.394Z,16.49
2023-01-27T02:00:56.315Z,16.49
2023-01-27T02:02:03.546Z,16.47
2023-01-27T02:03:07.176Z,16.48
2023-01-27T02:04:15.564Z,16.47
2023-01-27T02:05:22.303Z,16.48
2023-01-27T02:06:24.222Z,16.48
2023-01-27T02:07:34.480Z,16.46
2023-01-27T02:08:40.292Z,16.46
2023-01-27T02:09:42.810Z,16.47
2023-01-27T02:10:44.971Z,16.47
2023-01-27T02:11:46.819Z,16.45
2023-01-27T02:12:48.872Z,16.45
2023-01-27T02:13:50.845Z,16.35
2023-01-27T02:14:52.978Z,16.42
2023-01-27T02:15:56.518Z,16.43
2023-01-27T02:16:58.658Z,16.42
2023-01-27T02:18:02.585Z,16.41
2023-01-27T02:19:05.935Z,16.42
2023-01-27T02:20:31.276Z,16.42
2023-01-27T02:21:33.278Z,16.41
2023-01-27T02:23:10.554Z,16.54
2023-01-27T02:24:13.670Z,16.45
2023-01-27T02:25:29.479Z,16.47
2023-01-27T02:26:36.155Z,16.48
2023-01-27T02:27:38.196Z,16.45
2023-01-27T02:28:40.037Z,16.40
2023-01-27T02:29:41.912Z,16.42
2023-01-27T02:30:44.036Z,16.39
2023-01-27T02:31:46.040Z,16.38
2023-01-27T02:32:47.975Z,16.37
2023-01-27T02:33:54.035Z,16.37
2023-01-27T02:34:57.000Z,16.36
2023-01-27T02:36:04.196Z,16.31
2023-01-27T02:37:10.456Z,16.30
2023-01-27T02:38:14.529Z,16.37
2023-01-27T02:39:20.721Z,16.36
2023-01-27T02:40:24.043Z,16.33
2023-01-27T02:41:27.971Z,16.37
2023-01-27T02:42:30.286Z,16.37
2023-01-27T02:43:32.127Z,16.36
2023-01-27T02:44:34.063Z,16.33
2023-01-27T02:45:37.646Z,16.34
2023-01-27T02:46:39.628Z,16.33
2023-01-27T02:47:42.068Z,16.34
2023-01-27T02:48:44.907Z,16.33
2023-01-27T02:49:47.187Z,16.33
2023-01-27T02:50:49.159Z,16.32
2023-01-27T02:51:51.088Z,16.33
2023-01-27T02:52:53.364Z,16.32
2023-01-27T02:53:56.803Z,16.32
2023-01-27T02:54:58.683Z,16.25
2023-01-27T02:56:00.483Z,16.30
2023-01-27T02:57:02.386Z,16.30
2023-01-27T02:58:07.831Z,16.31
2023-01-27T02:59:16.991Z,16.32
2023-01-27T03:00:18.957Z,16.30
2023-01-27T03:01:20.755Z,16.30
2023-01-27T03:02:30.641Z,16.30
2023-01-27T03:03:32.537Z,16.32
2023-01-27T03:04:38.920Z,16.30
2023-01-27T03:05:41.104Z,16.31
2023-01-27T03:06:43.224Z,16.29
2023-01-27T03:07:45.271Z,16.28
2023-01-27T03:08:48.400Z,16.28
2023-01-27T03:09:50.894Z,16.28
2023-01-27T03:10:54.509Z,16.27
2023-01-27T03:12:15.906Z,16.27
2023-01-27T03:13:22.251Z,16.30
2023-01-27T03:14:45.153Z,16.30
2023-01-27T03:16:06.876Z,16.27
2023-01-27T03:17:27.243Z,16.27
2023-01-27T03:18:29.384Z,16.33
2023-01-27T03:19:31.425Z,16.30
2023-01-27T03:20:33.332Z,16.27
2023-01-27T03:21:35.126Z,16.24
2023-01-27T03:22:37.086Z,16.24
2023-01-27T03:23:39.767Z,16.24
2023-01-27T03:24:41.787Z,16.23
2023-01-27T03:25:48.303Z,16.22
2023-01-27T03:26:50.406Z,16.24
2023-01-27T03:27:55.832Z,16.24
2023-01-27T03:29:20.235Z,16.25
2023-01-27T03:30:22.402Z,16.27
2023-01-27T03:31:50.262Z,16.31
2023-01-27T03:32:52.587Z,16.27
2023-01-27T03:34:14.484Z,16.17
2023-01-27T03:35:23.094Z,16.27
2023-01-27T03:36:43.619Z,16.24
2023-01-27T03:38:04.512Z,16.27
2023-01-27T03:39:24.888Z,16.28
2023-01-27T03:40:46.071Z,16.27
2023-01-27T03:42:06.556Z,16.27
2023-01-27T03:43:30.252Z,16.29
2023-01-27T03:44:51.186Z,16.27
2023-01-27T03:46:11.489Z,16.19
2023-01-27T03:47:13.427Z,16.23
2023-01-27T03:48:17.398Z,16.22
2023-01-27T03:49:19.499Z,16.20
2023-01-27T03:50:31.207Z,16.17
2023-01-27T03:51:33.231Z,16.10
2023-01-27T03:52:34.988Z,16.15
2023-01-27T03:53:37.415Z,16.11
2023-01-27T03:54:39.265Z,16.13
2023-01-27T03:55:41.448Z,16.15
2023-01-27T03:56:43.342Z,16.12
2023-01-27T03:57:45.913Z,16.10
2023-01-27T03:58:49.938Z,16.11
2023-01-27T03:59:52.383Z,16.13
2023-01-27T04:01:14.443Z,16.02
2023-01-27T04:02:34.871Z,16.17
2023-01-27T04:03:55.464Z,16.20
2023-01-27T04:05:16.091Z,16.14
2023-01-27T04:06:39.021Z,16.21
2023-01-27T04:07:40.887Z,16.19
2023-01-27T04:08:43.629Z,16.16
2023-01-27T04:09:45.407Z,16.16
2023-01-27T04:11:07.107Z,16.14
2023-01-27T04:12:10.221Z,16.16
2023-01-27T04:13:11.982Z,16.12
2023-01-27T04:14:14.030Z,16.13
2023-01-27T04:15:17.477Z,16.00
2023-01-27T04:16:29.022Z,16.11
2023-01-27T04:17:38.830Z,16.12
2023-01-27T04:18:40.853Z,16.13
2023-01-27T04:19:43.039Z,16.10
2023-01-27T04:20:44.833Z,16.11
2023-01-27T04:21:47.423Z,16.08
2023-01-27T04:22:49.203Z,16.08
2023-01-27T04:23:52.280Z,16.08
2023-01-27T04:24:54.213Z,16.06
2023-01-27T04:25:56.702Z,16.07
2023-01-27T04:27:27.799Z,16.16
2023-01-27T04:28:43.784Z,16.15
2023-01-27T04:29:46.379Z,16.15
2023-01-27T04:30:48.920Z,16.11
2023-01-27T04:31:51.571Z,16.09
2023-01-27T04:32:53.423Z,16.09
2023-01-27T04:33:55.280Z,16.08
2023-01-27T04:34:57.095Z,16.07
2023-01-27T04:35:59.015Z,16.06
2023-01-27T04:37:00.818Z,16.04
2023-01-27T04:38:02.952Z,16.06
2023-01-27T04:39:04.826Z,15.96
2023-01-27T04:40:09.335Z,16.05
2023-01-27T04:41:11.344Z,16.06
2023-01-27T04:42:13.103Z,16.05
2023-01-27T04:43:15.292Z,16.01
2023-01-27T04:44:20.182Z,16.05
2023-01-27T04:45:21.964Z,16.06
2023-01-27T04:46:23.894Z,16.04
2023-01-27T04:47:25.713Z,16.04
2023-01-27T04:48:27.578Z,16.04
2023-01-27T04:49:29.388Z,16.04
2023-01-27T04:50:31.216Z,16.03
2023-01-27T04:51:33.930Z,16.02
2023-01-27T04:52:35.810Z,16.04
2023-01-27T04:53:37.704Z,15.96
2023-01-27T04:54:39.559Z,16.02
2023-01-27T04:55:46.163Z,16.02
2023-01-27T04:57:00.223Z,16.04
2023-01-27T04:58:02.011Z,16.06
2023-01-27T04:59:06.952Z,16.04
2023-01-27T05:00:10.623Z,16.04
2023-01-27T05:01:12.434Z,16.03
2023-01-27T05:02:14.307Z,16.02
2023-01-27T05:03:16.231Z,16.02
2023-01-27T05:04:18.150Z,16.01
2023-01-27T05:05:19.913Z,16.01
2023-01-27T05:06:22.458Z,16.01
2023-01-27T05:07:24.638Z,15.99
2023-01-27T05:08:26.668Z,15.99
2023-01-27T05:09:28.544Z,15.96
2023-01-27T05:10:30.309Z,15.89
2023-01-27T05:11:32.151Z,15.96
2023-01-27T05:12:34.004Z,15.99
2023-01-27T05:13:36.035Z,15.99
2023-01-27T05:14:37.888Z,15.98
2023-01-27T05:15:39.761Z,15.98
2023-01-27T05:16:41.689Z,15.98
2023-01-27T05:17:43.637Z,15.98
2023-01-27T05:18:47.919Z,15.97
2023-01-27T05:19:49.925Z,15.97
2023-01-27T05:20:52.351Z,15.94
2023-01-27T05:21:54.157Z,15.99
2023-01-27T05:23:16.084Z,15.98
2023-01-27T05:24:17.877Z,16.03
2023-01-27T05:25:19.755Z,16.01
2023-01-27T05:26:24.254Z,15.97
2023-01-27T05:27:26.064Z,15.99
2023-01-27T05:28:28.414Z,15.97
2023-01-27T05:29:31.543Z,15.98
2023-01-27T05:30:33.377Z,15.94
2023-01-27T05:31:35.621Z,15.94
2023-01-27T05:32:37.539Z,15.96
2023-01-27T05:33:40.222Z,15.96
2023-01-27T05:34:42.095Z,15.96
2023-01-27T05:35:43.931Z,15.97
2023-01-27T05:36:45.691Z,15.96
2023-01-27T05:37:47.504Z,15.96
2023-01-27T05:38:49.722Z,15.96
2023-01-27T05:39:51.542Z,15.96
2023-01-27T05:40:58.047Z,15.96
2023-01-27T05:41:59.853Z,15.89
2023-01-27T05:43:01.633Z,15.96
2023-01-27T05:44:04.396Z,15.76
2023-01-27T05:45:06.964Z,15.95
2023-01-27T05:46:11.817Z,15.94
2023-01-27T05:47:13.694Z,15.96
2023-01-27T05:48:15.575Z,15.96
2023-01-27T05:49:17.366Z,15.94
2023-01-27T05:50:19.279Z,15.95
2023-01-27T05:51:23.402Z,15.94
2023-01-27T05:52:25.169Z,15.95
2023-01-27T05:53:27.160Z,15.94
2023-01-27T05:54:29.002Z,15.95
2023-01-27T05:55:30.777Z,15.94
2023-01-27T05:56:34.141Z,15.91
2023-01-27T05:57:36.079Z,15.94
2023-01-27T05:58:39.007Z,15.94
2023-01-27T05:59:40.902Z,15.95
2023-01-27T06:00:42.905Z,15.93
2023-01-27T06:01:44.915Z,15.93
2023-01-27T06:02:47.604Z,15.88
2023-01-27T06:03:50.007Z,15.92
2023-01-27T06:04:51.851Z,15.93
2023-01-27T06:05:56.450Z,15.88
2023-01-27T06:06:58.210Z,15.94
2023-01-27T06:07:59.991Z,15.92
2023-01-27T06:09:01.872Z,15.88
2023-01-27T06:10:03.943Z,15.94
2023-01-27T06:11:06.753Z,15.93
2023-01-27T06:12:08.633Z,15.95
2023-01-27T06:13:10.576Z,15.86
2023-01-27T06:14:12.456Z,15.99
2023-01-27T06:15:14.618Z,16.00
2023-01-27T06:16:19.294Z,15.95
2023-01-27T06:17:21.172Z,16.00
2023-01-27T06:18:24.040Z,16.07
2023-01-27T06:19:25.843Z,16.09
2023-01-27T06:20:27.654Z,16.11
2023-01-27T06:21:29.422Z,16.13
2023-01-27T06:22:31.262Z,16.02
2023-01-27T06:23:33.281Z,16.18
2023-01-27T06:24:35.092Z,16.22
2023-01-27T06:25:42.957Z,16.24
2023-01-27T06:26:44.731Z,16.28
2023-01-27T06:27:46.635Z,16.32
2023-01-27T06:28:48.685Z,16.27
2023-01-27T06:29:50.522Z,16.36
2023-01-27T06:30:53.260Z,16.39
2023-01-27T06:31:55.150Z,16.41
2023-01-27T06:32:57.025Z,16.32
2023-01-27T06:33:58.865Z,16.47
2023-01-27T06:35:00.686Z,16.48
2023-01-27T06:36:05.657Z,16.48
2023-01-27T06:37:07.445Z,16.50
2023-01-27T06:38:12.883Z,16.57
2023-01-27T06:39:14.648Z,16.61
2023-01-27T06:40:16.750Z,16.63
2023-01-27T06:41:18.870Z,16.64
2023-01-27T06:42:20.677Z,16.67
2023-01-27T06:43:22.556Z,16.70
2023-01-27T06:44:24.454Z,16.72
2023-01-27T06:45:27.033Z,16.70
2023-01-27T06:46:28.936Z,16.76
2023-01-27T06:47:30.772Z,16.78
2023-01-27T06:48:33.024Z,16.71
2023-01-27T06:49:34.913Z,16.73
2023-01-27T06:50:37.584Z,16.81
2023-01-27T06:51:39.448Z,16.74
2023-01-27T06:52:41.245Z,16.84
2023-01-27T06:53:43.123Z,16.85
2023-01-27T06:54:45.021Z,16.85
2023-01-27T06:55:47.283Z,16.86
2023-01-27T06:56:49.228Z,16.87
2023-01-27T06:57:51.895Z,16.85
2023-01-27T06:58:53.683Z,16.89
2023-01-27T06:59:56.112Z,16.90
2023-01-27T07:00:58.140Z,16.91
2023-01-27T07:02:00.835Z,16.92
2023-01-27T07:03:03.296Z,16.93
2023-01-27T07:04:05.137Z,16.94
2023-01-27T07:05:07.223Z,16.94
2023-01-27T07:06:11.144Z,16.94
2023-01-27T07:07:13.082Z,16.96
2023-01-27T07:08:15.045Z,16.96
2023-01-27T07:09:16.980Z,16.93
2023-01-27T07:10:19.110Z,16.92
2023-01-27T07:11:20.971Z,16.95
2023-01-27T07:12:22.738Z,16.96
2023-01-27T07:13:24.594Z,16.96
2023-01-27T07:14:26.363Z,16.93
2023-01-27T07:15:28.562Z,16.95
2023-01-27T07:16:30.659Z,16.95
2023-01-27T07:17:32.647Z,16.95
2023-01-27T07:18:34.928Z,16.94
2023-01-27T07:19:36.731Z,16.94
2023-01-27T07:20:38.527Z,16.95
2023-01-27T07:21:40.519Z,16.95
2023-01-27T07:22:42.276Z,16.87
2023-01-27T07:23:44.160Z,16.94
2023-01-27T07:24:46.112Z,16.94
2023-01-27T07:25:47.904Z,16.86
2023-01-27T07:26:49.710Z,16.93
2023-01-27T07:27:51.858Z,16.93
2023-01-27T07:28:53.840Z,16.85
2023-01-27T07:29:55.788Z,16.94
2023-01-27T07:31:01.611Z,16.92
2023-01-27T07:32:03.655Z,16.94
2023-01-27T07:33:10.533Z,16.93
2023-01-27T07:34:12.456Z,16.83
2023-01-27T07:35:14.296Z,16.95
2023-01-27T07:36:16.094Z,16.93
2023-01-27T07:37:18.251Z,16.94
2023-01-27T07:38:20.090Z,16.86
2023-01-27T07:39:21.910Z,16.83
2023-01-27T07:40:23.705Z,16.91
2023-01-27T07:41:26.392Z,16.93
2023-01-27T07:42:28.170Z,16.93
2023-01-27T07:43:29.957Z,16.93
2023-01-27T07:44:31.881Z,16.93
2023-01-27T07:45:33.721Z,16.93
2023-01-27T07:46:35.826Z,16.91
2023-01-27T07:47:37.997Z,16.92
2023-01-27T07:48:39.795Z,16.88
2023-01-27T07:49:41.676Z,16.92
2023-01-27T07:50:43.540Z,16.87
2023-01-27T07:51:45.790Z,16.93
2023-01-27T07:52:47.636Z,16.93
2023-01-27T07:53:49.494Z,16.93
2023-01-27T07:54:51.435Z,16.92
2023-01-27T07:55:53.282Z,16.92
2023-01-27T07:56:55.076Z,16.89
2023-01-27T07:57:57.512Z,16.91
2023-01-27T07:58:59.267Z,16.86
2023-01-27T08:00:01.117Z,16.93
2023-01-27T08:01:06.065Z,16.91
2023-01-27T08:02:10.272Z,16.92
2023-01-27T08:03:31.603Z,16.90
2023-01-27T08:04:43.448Z,16.98
2023-01-27T08:05:52.939Z,16.99
2023-01-27T08:06:54.995Z,16.92
2023-01-27T08:07:58.793Z,16.90
2023-01-27T08:09:00.853Z,16.95
2023-01-27T08:10:02.665Z,16.94
2023-01-27T08:11:10.227Z,16.93
2023-01-27T08:12:12.033Z,16.95
2023-01-27T08:13:13.901Z,16.94
2023-01-27T08:14:15.725Z,16.93
2023-01-27T08:15:19.165Z,16.87
2023-01-27T08:16:21.284Z,16.86
2023-01-27T08:17:23.115Z,16.89
2023-01-27T08:18:26.034Z,16.91
2023-01-27T08:19:27.823Z,16.93
2023-01-27T08:20:29.766Z,16.92
2023-01-27T08:21:33.265Z,16.93
2023-01-27T08:22:35.150Z,16.92
2023-01-27T08:23:37.475Z,16.93
2023-01-27T08:24:39.229Z,16.91
2023-01-27T08:25:40.982Z,16.92
2023-01-27T08:26:42.850Z,16.87
2023-01-27T08:27:44.617Z,16.81
2023-01-27T08:28:46.544Z,16.93
2023-01-27T08:29:48.316Z,16.93
2023-01-27T08:30:53.812Z,16.92
2023-01-27T08:31:55.648Z,16.95
2023-01-27T08:32:57.517Z,16.87
2023-01-27T08:33:59.496Z,16.90
2023-01-27T08:35:01.278Z,16.92
2023-01-27T08:36:15.380Z,16.82
2023-01-27T08:37:17.231Z,16.95
2023-01-27T08:38:19.810Z,16.94
2023-01-27T08:39:21.903Z,16.92
2023-01-27T08:40:23.798Z,16.94
2023-01-27T08:41:27.057Z,16.92
2023-01-27T08:42:28.832Z,16.95
2023-01-27T08:43:30.907Z,16.92
2023-01-27T08:44:32.799Z,16.88
2023-01-27T08:45:35.960Z,16.92
2023-01-27T08:46:37.971Z,16.93
2023-01-27T08:47:39.758Z,16.92
2023-01-27T08:48:41.873Z,16.90
2023-01-27T08:49:43.676Z,16.93
2023-01-27T08:50:45.441Z,16.94
2023-01-27T08:51:47.291Z,16.96
2023-01-27T08:52:49.131Z,16.91
2023-01-27T08:53:51.003Z,16.83
2023-01-27T08:54:52.815Z,16.94
2023-01-27T08:55:58.006Z,16.95
2023-01-27T08:56:59.795Z,16.96
2023-01-27T08:58:01.698Z,16.96
2023-01-27T08:59:03.620Z,16.95
2023-01-27T09:00:07.644Z,16.94
2023-01-27T09:01:09.745Z,16.86
2023-01-27T09:02:13.592Z,16.95
2023-01-27T09:03:16.079Z,16.97
2023-01-27T09:04:17.994Z,16.97
2023-01-27T09:05:20.879Z,16.97
2023-01-27T09:06:22.751Z,16.97
2023-01-27T09:07:24.563Z,16.94
2023-01-27T09:08:27.486Z,16.94
2023-01-27T09:09:29.258Z,16.98
2023-01-27T09:10:31.669Z,16.98
2023-01-27T09:11:33.821Z,16.99
2023-01-27T09:12:35.620Z,17.00
2023-01-27T09:13:37.668Z,17.00
2023-01-27T09:14:40.296Z,17.00
2023-01-27T09:15:43.874Z,17.01
2023-01-27T09:16:45.751Z,17.00
2023-01-27T09:17:47.706Z,17.01
2023-01-27T09:18:49.459Z,17.00
2023-01-27T09:19:51.855Z,16.92
2023-01-27T09:20:53.718Z,16.99
2023-01-27T09:21:55.736Z,17.00
2023-01-27T09:22:58.173Z,16.94
2023-01-27T09:24:00.039Z,16.99
2023-01-27T09:25:01.851Z,16.98
2023-01-27T09:26:03.640Z,16.76
2023-01-27T09:27:05.592Z,16.99
2023-01-27T09:28:12.272Z,16.99
2023-01-27T09:29:14.123Z,16.98
2023-01-27T09:30:16.688Z,17.00
2023-01-27T09:31:18.817Z,16.96
2023-01-27T09:32:20.817Z,17.01
2023-01-27T09:33:22.742Z,16.99
2023-01-27T09:34:24.627Z,17.01
2023-01-27T09:35:32.050Z,16.99
2023-01-27T09:36:40.758Z,17.01
2023-01-27T09:38:04.018Z,17.06
2023-01-27T09:39:08.498Z,17.06
2023-01-27T09:40:41.863Z,17.10
2023-01-27T09:41:51.985Z,17.08
2023-01-27T09:43:23.494Z,17.11
2023-01-27T09:45:02.429Z,17.16
2023-01-27T09:46:06.848Z,17.16
2023-01-27T09:47:26.875Z,17.10
2023-01-27T09:48:38.960Z,17.12
2023-01-27T09:49:56.536Z,17.11
2023-01-27T09:51:05.872Z,17.11
2023-01-27T09:52:10.217Z,17.10
2023-01-27T09:53:25.998Z,17.10
2023-01-27T09:54:45.120Z,17.10
2023-01-27T09:55:49.496Z,17.13
2023-01-27T09:56:54.286Z,17.09
2023-01-27T09:58:05.060Z,17.10
2023-01-27T09:59:06.879Z,17.10
2023-01-27T10:00:37.930Z,17.12
2023-01-27T10:01:54.531Z,17.15
2023-01-27T10:03:14.914Z,17.18
2023-01-27T10:04:35.163Z,17.16
2023-01-27T10:05:56.700Z,17.21
2023-01-27T10:07:12.690Z,17.20
2023-01-27T10:08:34.656Z,17.22
2023-01-27T10:09:51.246Z,17.19
2023-01-27T10:11:14.910Z,17.22
2023-01-27T10:12:37.612Z,17.19
2023-01-27T10:13:59.716Z,17.18
2023-01-27T10:15:04.239Z,17.18
2023-01-27T10:16:11.222Z,17.18
2023-01-27T10:17:44.130Z,17.20
2023-01-27T10:19:15.415Z,17.24
2023-01-27T10:20:35.595Z,17.22
2023-01-27T10:22:00.662Z,17.22
2023-01-27T10:23:02.418Z,17.23
2023-01-27T10:24:12.775Z,17.18
2023-01-27T10:25:26.805Z,17.17
2023-01-27T10:26:39.660Z,17.15
2023-01-27T10:27:48.287Z,17.17
2023-01-27T10:29:03.318Z,17.15
2023-01-27T10:30:35.849Z,17.23
2023-01-27T10:31:53.233Z,17.16
2023-01-27T10:33:13.159Z,17.16
2023-01-27T10:34:28.112Z,17.22
2023-01-27T10:35:45.239Z,17.20
2023-01-27T10:37:06.750Z,17.20
2023-01-27T10:38:29.303Z,17.12
2023-01-27T10:39:50.172Z,17.24
2023-01-27T10:41:43.281Z,17.33
2023-01-27T10:43:02.235Z,17.29
2023-01-27T10:44:24.984Z,17.27
2023-01-27T10:45:42.719Z,17.26
2023-01-27T10:47:26.116Z,17.28
2023-01-27T10:48:36.687Z,17.29
2023-01-27T10:50:12.773Z,17.30
2023-01-27T10:51:42.131Z,17.32
2023-01-27T10:53:07.167Z,17.30
2023-01-27T10:54:24.820Z,17.28
2023-01-27T10:55:33.748Z,17.25
2023-01-27T10:56:39.619Z,17.25
2023-01-27T10:58:33.706Z,17.27
2023-01-27T11:00:05.302Z,17.32
2023-01-27T11:01:20.719Z,17.28
2023-01-27T11:02:36.812Z,17.27
2023-01-27T11:03:54.681Z,17.31
2023-01-27T11:05:07.629Z,17.29
2023-01-27T11:06:16.655Z,17.13
2023-01-27T11:07:21.572Z,17.25
2023-01-27T11:08:28.244Z,17.24
2023-01-27T11:09:48.507Z,17.27
2023-01-27T11:11:13.898Z,17.22
2023-01-27T11:12:16.635Z,17.24
2023-01-27T11:13:18.533Z,17.27
2023-01-27T11:14:27.880Z,17.25
2023-01-27T11:15:34.858Z,17.20
2023-01-27T11:16:40.281Z,17.20
2023-01-27T11:17:44.877Z,17.20
2023-01-27T11:18:55.703Z,17.24
2023-01-27T11:20:23.967Z,17.27
2023-01-27T11:21:31.352Z,17.30
2023-01-27T11:22:44.004Z,17.24
2023-01-27T11:23:51.944Z,17.29
2023-01-27T11:25:08.584Z,17.31
2023-01-27T11:26:16.283Z,17.22
2023-01-27T11:27:35.974Z,17.29
2023-01-27T11:28:56.916Z,17.34
2023-01-27T11:30:09.117Z,17.32
2023-01-27T11:31:42.127Z,17.37
2023-01-27T11:32:59.351Z,17.35
2023-01-27T11:34:03.950Z,17.34
2023-01-27T11:35:15.825Z,17.27
2023-01-27T11:36:18.048Z,17.29
2023-01-27T11:37:27.287Z,17.21
2023-01-27T11:38:29.122Z,17.31
2023-01-27T11:39:33.738Z,17.28
2023-01-27T11:40:38.534Z,17.21
2023-01-27T11:41:47.803Z,17.28
2023-01-27T11:42:51.919Z,17.30
2023-01-27T11:43:53.973Z,17.29
2023-01-27T11:44:58.182Z,17.23
2023-01-27T11:46:06.772Z,17.28
2023-01-27T11:47:16.055Z,17.30
2023-01-27T11:48:21.752Z,17.31
2023-01-27T11:49:48.395Z,17.36
2023-01-27T11:50:50.266Z,17.36
2023-01-27T11:51:52.119Z,17.35
2023-01-27T11:53:09.550Z,17.33
2023-01-27T11:54:29.082Z,17.38
2023-01-27T11:55:38.596Z,17.28
2023-01-27T11:56:43.968Z,17.36
2023-01-27T11:57:55.353Z,17.34
2023-01-27T11:59:06.737Z,17.29
2023-01-27T12:00:32.134Z,17.35
2023-01-27T12:01:48.367Z,17.40
2023-01-27T12:03:14.890Z,17.39
2023-01-27T12:04:40.381Z,17.33
2023-01-27T12:05:52.545Z,17.40
2023-01-27T12:07:12.822Z,17.40
2023-01-27T12:08:40.173Z,17.45
2023-01-27T12:09:42.355Z,17.41
2023-01-27T12:10:44.140Z,17.38
2023-01-27T12:11:45.932Z,17.36
2023-01-27T12:12:47.845Z,17.33
2023-01-27T12:13:52.419Z,17.31
2023-01-27T12:14:59.780Z,17.32
2023-01-27T12:16:05.020Z,17.32
2023-01-27T12:17:08.617Z,17.10
2023-01-27T12:18:15.478Z,17.30
2023-01-27T12:19:40.185Z,17.36
2023-01-27T12:20:49.314Z,17.38
2023-01-27T12:22:00.371Z,17.33
2023-01-27T12:23:16.497Z,17.38
2023-01-27T12:24:28.217Z,17.37
2023-01-27T12:25:40.325Z,17.37
2023-01-27T12:26:44.689Z,17.38
2023-01-27T12:27:53.704Z,17.37
2023-01-27T12:28:55.625Z,17.37
2023-01-27T12:30:04.092Z,17.35
2023-01-27T12:31:30.987Z,17.41
2023-01-27T12:32:42.349Z,17.34
2023-01-27T12:33:48.723Z,17.35
2023-01-27T12:34:57.045Z,17.38
2023-01-27T12:36:01.371Z,17.37
2023-01-27T12:37:06.695Z,17.35
2023-01-27T12:38:20.234Z,17.38
2023-01-27T12:39:41.811Z,17.39
2023-01-27T12:40:46.502Z,17.41
2023-01-27T12:41:48.297Z,17.39
2023-01-27T12:43:03.829Z,17.37
2023-01-27T12:44:20.073Z,17.41
2023-01-27T12:45:23.713Z,17.40
2023-01-27T12:46:28.029Z,17.38
2023-01-27T12:47:31.508Z,17.35
2023-01-27T12:48:36.302Z,17.36
2023-01-27T12:49:40.458Z,17.36
2023-01-27T12:50:53.298Z,17.35
2023-01-27T12:51:55.696Z,17.38
2023-01-27T12:53:22.686Z,17.37
2023-01-27T12:54:27.951Z,17.41
2023-01-27T12:55:32.841Z,17.39
2023-01-27T12:56:35.224Z,17.39
2023-01-27T12:57:43.584Z,17.38
2023-01-27T12:58:47.164Z,17.38
2023-01-27T12:59:52.689Z,17.37
2023-01-27T13:00:55.573Z,17.37
2023-01-27T13:02:23.183Z,17.40
2023-01-27T13:03:26.452Z,17.37
2023-01-27T13:04:29.235Z,17.39
2023-01-27T13:05:37.208Z,17.37
2023-01-27T13:06:43.489Z,17.31
2023-01-27T13:07:53.340Z,17.31
2023-01-27T13:08:55.187Z,17.39
2023-01-27T13:10:06.546Z,17.32
2023-01-27T13:11:08.810Z,17.39
2023-01-27T13:12:24.843Z,17.34
2023-01-27T13:13:29.056Z,17.40
2023-01-27T13:14:35.681Z,17.38
2023-01-27T13:15:37.492Z,17.40
2023-01-27T13:16:39.547Z,17.37
2023-01-27T13:17:50.051Z,17.31
2023-01-27T13:18:57.978Z,17.39
2023-01-27T13:20:06.057Z,17.39
2023-01-27T13:21:13.952Z,17.38
2023-01-27T13:22:20.598Z,17.39
2023-01-27T13:23:26.387Z,17.39
2023-01-27T13:24:42.454Z,17.41
2023-01-27T13:25:54.633Z,17.41
2023-01-27T13:26:58.022Z,17.41
2023-01-27T13:28:01.260Z,17.40
2023-01-27T13:29:08.977Z,17.39
2023-01-27T13:30:21.690Z,17.39
2023-01-27T13:31:57.032Z,17.42
2023-01-27T13:33:22.261Z,17.45
2023-01-27T13:34:48.034Z,17.51
2023-01-27T13:35:59.968Z,17.47
2023-01-27T13:37:10.095Z,17.41
2023-01-27T13:38:43.707Z,17.47
2023-01-27T13:39:57.537Z,17.47
2023-01-27T13:41:03.588Z,17.45
2023-01-27T13:42:05.603Z,17.44
2023-01-27T13:43:29.402Z,17.40
2023-01-27T13:44:48.050Z,17.41
2023-01-27T13:46:04.733Z,17.42
2023-01-27T13:47:16.799Z,17.43
2023-01-27T13:48:27.867Z,17.43
2023-01-27T13:49:38.009Z,17.42
2023-01-27T13:50:44.926Z,17.41
2023-01-27T13:51:46.728Z,17.37
2023-01-27T13:52:53.057Z,17.37
2023-01-27T13:54:02.046Z,17.34
2023-01-27T13:55:04.226Z,17.35
2023-01-27T13:56:13.709Z,17.38
2023-01-27T13:57:41.752Z,17.42
2023-01-27T13:59:05.220Z,17.42
2023-01-27T14:00:20.649Z,17.44
2023-01-27T14:01:47.073Z,17.43
2023-01-27T14:03:03.876Z,17.45
2023-01-27T14:04:13.924Z,17.40
2023-01-27T14:05:33.669Z,17.42
2023-01-27T14:07:00.204Z,17.45
2023-01-27T14:08:20.859Z,17.45
2023-01-27T14:10:08.886Z,17.50
2023-01-27T14:11:16.979Z,17.51
2023-01-27T14:12:37.029Z,17.47
2023-01-27T14:13:55.151Z,17.47
2023-01-27T14:15:03.402Z,17.44
2023-01-27T14:16:40.462Z,17.52
2023-01-27T14:18:02.564Z,17.53
2023-01-27T14:19:19.728Z,17.50
2023-01-27T14:20:25.928Z,17.50
2023-01-27T14:21:44.141Z,17.47
2023-01-27T14:22:56.875Z,17.49
2023-01-27T14:24:29.817Z,17.52